Main page
METAR-TAF:

METAR-TAF

Airports :

London Biggin Hill, England

London Biggin Hill Airport

latitude: 51-19N, longitude: 000-02E, elevation: 183 m

Current weather observation

The report was made 6 hours and 8 minutes ago, at 20:20 UTC
Wind 6 kt from the South/Southwest
Temperature 14°C
Humidity 88%
Pressure 1012 hPa
Visibility 10 km or more
no clouds below 1500 m and no cumulonimbus

METAR: EGKB 232020Z 20006KT CAVOK 14/12 Q1012

Time: 03:28 (02:28 UTC)

Forecast

The report was made 9 hours and 29 minutes ago, at 16:59 UTC
Forecast valid from 23 at 18 UTC to 23 at 21 UTC
Wind 8 kt from the West/Southwest
Visibility 10 km or more
Scattered clouds at a height of 2000 ft
Temporary
from 23 at 18 UTC to 23 at 21 UTC
Visibility: 7000 m
rain showers
Probability 30% :
Temporary
from 23 at 18 UTC to 23 at 19 UTC
Visibility: 4000 m
Broken clouds at a height of 1200 ft
heavy rain showers

TAF: EGKB 231659Z 2318/2321 25008KT 9999 SCT020 TEMPO 2318/2321 7000 SHRA PROB30 TEMPO 2318/2319 4000 +SHRA BKN012

Weather observations and forecasts of more than 4000 airports (METAR and TAF reports).

The available stations are represented by yellow and red dots on the map.

Hover mouse over dot to see the name of the station.

Then click to see weather observations and forecasts.

To change the map : click on the green buttons with a black cross to zoom in, on the green button with a dash to zoom out, or on the green arrows for adjacent maps.


METAR-TAF: